Latest Weather Observations for Mount Moornapa

IDV60801

Issued at 6:52 pm EST Thursday 18 July 2024 (issued every 10 minutes, with the page automatically refreshed every 10 minutes)

About weather observations | Map of weather stations | Latest weather observations for VIC | Other Formats
Station Details ID: 085296 Name: MOUNT MOORNAPA Lat: -37.75 Lon: 147.14 Height: 480.0 m
Data from the previous 72 hours. | See also: Recent months at Mount Moornapa
Date/Time
EST
Temp
°C
App
Temp
°C
Dew
Point
°C
Rel
Hum
%
Delta-T
°C
Wind Press
QNH
hPa
Press
MSL
hPa
Rain since
9am
mm
Dir  Spd
km/h
Gust
km/h
Spd
kts
Gust
kts
18/06:30pm 5.4 1.8 2.8 83 1.1 W 11 17 6 9 - - 0.0
18/06:00pm 5.4 1.4 2.9 84 1.1 W 13 22 7 12 - - 0.0
18/05:30pm 5.4 2.3 3.4 87 0.9 SW 9 19 5 10 - - 0.0
18/05:00pm 5.8 3.2 3.3 84 1.1 SSW 6 19 3 10 - - 0.0
18/04:30pm 7.3 4.5 3.4 76 1.7 W 7 13 4 7 - - 0.0
18/04:00pm 7.0 3.5 3.4 78 1.6 SW 11 24 6 13 - - 0.0
18/03:30pm 7.6 4.6 4.0 78 1.6 SW 9 19 5 10 - - 0.0
18/03:00pm 7.2 4.3 4.5 83 1.2 SW 9 20 5 11 - - 0.0
18/02:30pm 8.7 5.5 5.3 79 1.6 WSW 11 24 6 13 - - 0.0
18/02:00pm 7.8 4.5 4.6 80 1.4 WSW 11 20 6 11 - - 0.0
18/01:30pm 7.3 4.3 4.1 80 1.4 WSW 9 24 5 13 - - 0.0
18/01:00pm 7.3 4.4 4.8 84 1.1 WSW 9 30 5 16 - - 0.0
18/12:30pm 7.5 4.6 4.5 81 1.3 WSW 9 22 5 12 - - 0.0
18/12:00pm 6.7 3.8 4.5 86 1.0 SW 9 17 5 9 - - 0.0
18/11:30am 6.6 4.0 4.1 84 1.1 WSW 7 17 4 9 - - 0.0
18/11:00am 7.0 4.0 4.0 81 1.3 W 9 20 5 11 - - 0.0
18/10:30am 6.6 3.2 3.8 82 1.2 WSW 11 26 6 14 - - 0.0
18/10:00am 6.2 2.8 3.9 85 1.0 WSW 11 20 6 11 - - 0.0
18/09:30am 5.9 2.1 3.9 87 0.9 WSW 13 26 7 14 - - 0.0
18/09:00am 5.5 1.7 3.8 89 0.7 WSW 13 35 7 19 - - 3.6
18/08:30am 5.3 1.1 4.0 91 0.6 WSW 15 30 8 16 - - 3.6
18/08:00am 5.1 0.9 3.9 92 0.5 WSW 15 33 8 18 - - 3.6
18/07:30am 5.2 0.9 3.2 87 0.9 W 15 32 8 17 - - 3.6
18/07:00am 5.3 0.9 2.7 83 1.1 W 15 32 8 17 - - 3.6
18/06:30am 5.4 1.7 2.2 80 1.3 W 11 19 6 10 - - 3.6
18/06:00am 5.7 1.2 2.0 77 1.5 W 15 26 8 14 - - 3.6
18/05:30am 5.8 1.7 2.3 78 1.5 W 13 20 7 11 - - 3.6
18/05:00am 5.8 1.8 3.0 82 1.2 W 13 22 7 12 - - 3.6
18/04:30am 5.7 2.2 3.5 86 0.9 W 11 22 6 12 - - 3.6
18/04:00am 5.5 1.9 4.8 95 0.3 W 13 20 7 11 - - 3.6
18/03:30am 5.4 3.0 5.3 99 0.0 WSW 7 11 4 6 - - 3.6
18/03:00am 5.7 2.3 5.7 100 0.0 WNW 13 22 7 12 - - 3.6
18/02:30am 5.6 2.5 5.6 100 0.0 WSW 11 17 6 9 - - 3.6
18/02:00am 6.0 3.9 6.0 100 0.0 SSW 6 15 3 8 - - 3.6
18/01:30am 6.1 3.9 6.1 100 0.0 SW 7 17 4 9 - - 3.6
18/01:00am 6.3 4.1 6.3 100 0.0 SW 7 13 4 7 - - 3.6
18/12:30am 6.6 4.5 6.6 100 0.0 SW 7 15 4 8 - - 3.6
18/12:00am 6.7 4.2 6.6 99 0.0 WSW 9 15 5 8 - - 3.2
 
Date/Time
EST
Temp
°C
App
Temp
°C
Dew
Point
°C
Rel
Hum
%
Delta-T
°C
Wind Press
QNH
hPa
Press
MSL
hPa
Rain since
9am
mm
Dir  Spd
km/h
Gust
km/h
Spd
kts
Gust
kts
17/11:30pm 7.1 5.1 7.0 99 0.0 W 7 15 4 8 - - 2.8
17/11:00pm 6.6 5.0 6.5 99 0.0 NW 4 6 2 3 - - 2.6
17/10:30pm 6.4 4.4 6.3 99 0.0 NNW 6 7 3 4 - - 2.6
17/10:00pm 6.4 4.4 6.4 100 0.0 NNW 6 9 3 5 - - 2.4
17/09:30pm 6.1 3.1 6.1 100 0.0 N 11 15 6 8 - - 2.4
17/09:00pm 6.2 3.6 6.2 100 0.0 N 9 11 5 6 - - 2.4
17/08:30pm 6.4 3.9 6.4 100 0.0 N 9 11 5 6 - - 2.4
17/08:00pm 7.0 5.0 7.0 100 0.0 NNE 7 7 4 4 - - 2.4
17/07:30pm 7.2 5.4 7.2 100 0.0 NNE 6 9 3 5 - - 2.4
17/07:00pm 7.1 5.3 7.1 100 0.0 NNE 6 7 3 4 - - 2.4
17/06:30pm 7.1 5.7 7.1 100 0.0 ENE 4 9 2 5 - - 2.4
17/06:00pm 7.0 5.9 7.0 100 0.0 ESE 2 4 1 2 - - 2.4
17/05:30pm 6.9 5.4 6.9 100 0.0 NNE 4 6 2 3 - - 2.4
17/05:00pm 7.7 7.2 7.7 100 0.0 CALM 0 2 0 1 - - 2.4
17/04:30pm 7.4 5.7 7.4 100 0.0 SE 6 6 3 3 - - 2.4
17/04:00pm 7.3 5.5 7.3 100 0.0 SE 6 7 3 4 - - 2.2
17/03:30pm 7.5 5.6 7.4 99 0.0 SE 7 9 4 5 - - 1.8
17/03:00pm 7.8 6.0 7.2 96 0.3 SE 6 6 3 3 - - 0.8
17/02:30pm 8.8 7.8 7.4 91 0.7 SSE 2 4 1 2 - - 0.0
17/02:00pm 10.3 8.9 7.2 81 1.5 WSW 4 7 2 4 - - 0.0
17/01:30pm 10.5 9.2 7.6 82 1.4 WSW 4 9 2 5 - - 0.0
17/01:00pm 9.7 8.2 6.6 81 1.5 SSW 4 7 2 4 - - 0.0
17/12:30pm 10.2 8.9 7.8 85 1.2 SW 4 11 2 6 - - 0.0
17/12:00pm 9.6 8.3 7.5 87 1.0 S 4 7 2 4 - - 0.0
17/11:30am 9.1 7.7 7.4 89 0.8 S 4 6 2 3 - - 0.0
17/11:00am 9.0 7.8 8.1 94 0.4 S 4 11 2 6 - - 0.0
17/10:30am 8.9 8.1 8.0 94 0.4 SSW 2 7 1 4 - - 0.0
17/10:00am 8.3 7.3 7.4 94 0.4 SW 2 6 1 3 - - 0.0
17/09:30am 8.2 6.8 7.4 95 0.4 SW 4 7 2 4 - - 0.0
17/09:00am 7.4 5.5 6.8 96 0.3 SW 6 13 3 7 - - 22.2
17/08:30am 6.9 4.8 6.6 98 0.1 SW 7 17 4 9 - - 22.2
17/08:00am 6.4 4.2 6.3 99 0.0 SW 7 17 4 9 - - 22.2
17/07:30am 6.5 4.3 6.4 99 0.0 SW 7 17 4 9 - - 22.2
17/07:00am 6.8 4.3 6.7 99 0.0 SW 9 19 5 10 - - 22.2
17/06:30am 6.6 4.1 6.5 99 0.0 SW 9 19 5 10 - - 22.2
17/06:00am 6.8 4.7 6.7 99 0.0 SW 7 20 4 11 - - 22.2
17/05:30am 7.0 4.6 6.9 99 0.0 SW 9 19 5 10 - - 22.2
17/05:00am 6.9 4.8 6.8 99 0.0 SW 7 13 4 7 - - 22.2
17/04:30am 6.8 4.7 6.8 100 0.0 SW 7 19 4 10 - - 22.2
17/04:00am 6.8 4.7 6.8 100 0.0 SW 7 15 4 8 - - 22.2
17/03:30am 6.8 4.7 6.8 100 0.0 SW 7 17 4 9 - - 22.2
17/03:00am 6.8 4.9 6.8 100 0.0 SW 6 13 3 7 - - 22.2
17/02:30am 6.9 5.0 6.9 100 0.0 SSW 6 11 3 6 - - 22.0
17/02:00am 6.9 5.0 6.9 100 0.0 SSW 6 9 3 5 - - 22.0
17/01:30am 7.1 5.3 7.1 100 0.0 S 6 11 3 6 - - 22.0
17/01:00am 7.2 5.2 7.2 100 0.0 SW 7 17 4 9 - - 22.0
17/12:30am 7.1 5.1 7.1 100 0.0 SW 7 13 4 7 - - 22.0
17/12:00am 7.0 5.2 7.0 100 0.0 SSW 6 11 3 6 - - 22.0
 
Date/Time
EST
Temp
°C
App
Temp
°C
Dew
Point
°C
Rel
Hum
%
Delta-T
°C
Wind Press
QNH
hPa
Press
MSL
hPa
Rain since
9am
mm
Dir  Spd
km/h
Gust
km/h
Spd
kts
Gust
kts
16/11:30pm 7.0 4.6 7.0 100 0.0 SW 9 15 5 8 - - 22.0
16/11:00pm 6.9 4.9 6.9 100 0.0 SW 7 15 4 8 - - 22.0
16/10:30pm 6.9 4.9 6.9 100 0.0 SW 7 19 4 10 - - 22.0
16/10:00pm 7.0 5.0 7.0 100 0.0 SW 7 15 4 8 - - 22.0
16/09:30pm 7.2 5.4 7.2 100 0.0 SW 6 9 3 5 - - 22.0
16/09:00pm 7.1 5.1 7.1 100 0.0 S 7 15 4 8 - - 21.0
16/08:30pm 7.4 6.0 7.4 100 0.0 S 4 13 2 7 - - 20.0
16/08:00pm 7.5 5.8 7.5 100 0.0 SSW 6 7 3 4 - - 19.0
16/07:30pm 7.7 5.8 7.7 100 0.0 SSW 7 15 4 8 - - 19.0
16/07:00pm 7.4 5.7 7.4 100 0.0 SSW 6 9 3 5 - - 18.8
16/06:30pm 7.8 6.0 7.8 100 0.0 S 7 11 4 6 - - 18.8
16/06:00pm 7.9 6.3 7.9 100 0.0 SSW 6 9 3 5 - - 18.6
16/05:30pm 8.0 6.2 8.0 100 0.0 S 7 9 4 5 - - 18.6
16/05:00pm 8.1 6.3 8.1 100 0.0 S 7 11 4 6 - - 18.6
16/04:30pm 8.4 6.7 8.4 100 0.0 S 7 13 4 7 - - 18.6
16/04:00pm 8.7 6.7 8.7 100 0.0 S 9 11 5 6 - - 18.6
16/03:30pm 8.9 7.0 8.9 100 0.0 S 9 13 5 7 - - 18.6
16/03:00pm 9.3 7.1 9.3 100 0.0 S 11 15 6 8 - - 18.6
16/02:30pm 9.4 7.2 9.4 100 0.0 S 11 17 6 9 - - 18.6
16/02:00pm 9.3 7.8 9.3 100 0.0 S 7 13 4 7 - - 18.4
16/01:30pm 9.2 7.0 9.2 100 0.0 S 11 17 6 9 - - 17.0
16/01:00pm 9.0 6.3 9.0 100 0.0 S 13 20 7 11 - - 16.4
16/12:30pm 9.0 7.1 9.0 100 0.0 SSW 9 22 5 12 - - 10.8
16/12:00pm 9.2 7.7 9.2 100 0.0 S 7 17 4 9 - - 4.8
16/11:30am 9.1 7.2 9.1 100 0.0 S 9 19 5 10 - - 1.8
16/11:00am 9.1 7.6 9.1 100 0.0 SSW 7 13 4 7 - - 1.0
16/10:30am 9.3 8.0 9.3 100 0.0 S 6 13 3 7 - - 0.2
16/10:00am 9.0 7.6 9.0 100 0.0 S 6 11 3 6 - - 0.2
16/09:30am 8.6 6.6 8.6 100 0.0 S 9 13 5 7 - - 0.0
16/09:00am 8.6 6.6 8.6 100 0.0 S 9 17 5 9 - - 27.4
16/08:30am 8.5 6.5 8.5 100 0.0 S 9 13 5 7 - - 27.2
16/08:00am 8.4 5.9 8.4 100 0.0 S 11 15 6 8 - - 27.2
16/07:30am 8.4 4.8 8.4 100 0.0 S 17 33 9 18 - - 27.0
16/07:00am 8.4 4.4 8.4 100 0.0 S 19 37 10 20 - - 26.8
16/06:30am 8.3 5.4 8.3 100 0.0 S 13 24 7 13 - - 26.6
16/06:00am 8.2 5.3 8.2 100 0.0 S 13 26 7 14 - - 26.6
16/05:30am 8.1 5.6 8.1 100 0.0 S 11 20 6 11 - - 26.0
16/05:00am 8.1 5.2 8.1 100 0.0 S 13 22 7 12 - - 22.2
16/04:30am 8.1 5.2 8.1 100 0.0 SSW 13 30 7 16 - - 19.2
16/04:00am 8.1 4.1 8.1 100 0.0 SW 19 44 10 24 - - 16.4
16/03:30am 8.1 5.6 8.1 100 0.0 SSW 11 26 6 14 - - 14.6
16/03:00am 8.2 5.3 8.2 100 0.0 SSW 13 32 7 17 - - 14.0
16/02:30am 8.3 5.4 8.3 100 0.0 SW 13 33 7 18 - - 13.2
16/02:00am 8.4 6.3 8.4 100 0.0 SSW 9 15 5 8 - - 11.6
16/01:30am 8.3 5.4 8.3 100 0.0 S 13 22 7 12 - - 11.2
16/01:00am 7.7 5.5 7.7 100 0.0 SSW 9 20 5 11 - - 9.0
16/12:30am 7.1 5.1 7.0 99 0.0 SW 7 24 4 13 - - 7.6
16/12:00am 6.7 2.3 6.6 99 0.0 WNW 19 37 10 20 - - 5.2
 
Date/Time
EST
Temp
°C
App
Temp
°C
Dew
Point
°C
Rel
Hum
%
Delta-T
°C
Wind Press
QNH
hPa
Press
MSL
hPa
Rain since
9am
mm
Dir  Spd
km/h
Gust
km/h
Spd
kts
Gust
kts
15/11:30pm 6.8 1.7 6.2 96 0.3 WNW 22 50 12 27 - - 3.0
15/11:00pm 7.5 2.3 5.5 87 0.9 NW 22 41 12 22 - - 1.2
15/10:30pm 8.6 2.0 4.2 74 2.0 WNW 28 54 15 29 - - 0.8
15/10:29pm 8.7 2.1 4.3 74 2.0 WNW 28 54 15 29 - - 0.8
15/10:00pm 8.5 2.3 4.3 75 1.9 WNW 26 46 14 25 - - 0.8
15/09:30pm 8.2 2.7 3.9 74 1.9 WNW 22 41 12 22 - - 0.8
15/09:00pm 8.0 2.4 3.5 73 2.0 NW 22 37 12 20 - - 0.8
15/08:32pm 8.0 1.3 3.5 73 2.0 NW 28 46 15 25 - - 0.8
15/08:30pm 7.9 1.6 3.6 74 1.9 NW 26 46 14 25 - - 0.8
15/08:11pm 7.6 0.9 3.8 77 1.7 NW 28 57 15 31 - - 0.8
15/08:00pm 7.3 1.4 3.9 79 1.5 NW 24 41 13 22 - - 0.8
15/07:30pm 7.4 1.9 3.8 78 1.6 WNW 22 56 12 30 - - 0.6
15/07:00pm 8.2 2.9 3.1 70 2.2 WNW 20 46 11 25 - - 0.6

Other formats

Comma delimited format used in spreadsheet applications
http://www.bom.gov.au/fwo/IDV60801/IDV60801.95913.axf

JavaScript Object Notation format (JSON) in row-major order
http://www.bom.gov.au/fwo/IDV60801/IDV60801.95913.json

Data quality

Most of these data are generated automatically and are frequently updated. Quality checks on data are not normally performed. It is possible for incorrect values to appear. Refer to information at About Latest Weather Observations and please check the disclaimer before using these data.